首页
METAR-TAF:

METAR-TAF

机场 :

McEntire Joint National Guard Base

Eastover, 南卡罗来纳州, 美国

纬度: 33-55N, 经度: 080-48W, 海拔: 77米

当前天气观测

该预报发布于20分钟前的13:28 UTC
风速3节,风向东北
温度 20°C
湿度 100%
气压 1024 hPa
能見度: 1.4公里
阴天层高于200英尺
轻雾

METAR: KMMT 211328Z 04003KT 7/8SM BR OVC002 20/20 A3024 RMK AO2A SLP242 $

时间: 09:48 (13:48 UTC)

预报

该预报发布于1小时和48分钟前的12:00 UTC
预报有效从21日的 12点(UTC)到 22日的 13点(UTC)
风速6节,风向东转东北
能見度: 0800
阴天层高于200英尺
短暂存在
从 21日的 12点(UTC)到 21日的 13点(UTC)
能見度: 0400
成为
从 21日的 13点(UTC)到 21日的 14点(UTC)
风速6节,风向东转东北
能見度: 4800
阴天层高于200英尺
轻雾
成为
从 21日的 14点(UTC)到 21日的 15点(UTC)
风速9节,风向东北
能見度: 8000
多云层高于1000英尺
轻雾
成为
从 21日的 15点(UTC)到 21日的 16点(UTC)
风速9节,风向东转东北
能见度10公里或以上
散云层高于2000英尺
成为
从 22日的 08点(UTC)到 22日的 09点(UTC)
风速6节,风向东北
能見度: 4800
散云层高于4000英尺
轻雾

TAF: KMMT 211200Z 2112/2213 06006KT 0800 FG OVC002 QNH3014INS TEMPO 2112/2113 0400 FG BECMG 2113/2114 06006KT 4800 BR OVC002 QNH3015INS BECMG 2114/2115 05009KT 8000 BR BKN010 QNH3016INS BECMG 2115/2116 07009KT 9999 NSW SCT020 QNH3020INS BECMG 2208/2209 05006KT 4800 BR SCT040 QNH3016INS TX27/2120Z TN15/2112Z

超过4000个机场的气象观测和天气预报(METAR&TAF报告)。

可查询的气象台以黄色和红色小点在地图上表示。

将鼠标移到小点上方,可查看气象台名称。

然后点击查看天气观测和预报。

如需切换地图:点击带黑十字的绿色按钮放大地图;点击带横线的绿色按钮缩小地图;或者点击绿色箭头查看邻近地区的地图。


METAR-TAF: